createdAt,value
2022-08-30T00:01:00.590Z,101578.94
2022-08-30T00:03:27.562Z,101574.75
2022-08-30T00:05:56.350Z,101570.13
2022-08-30T00:08:23.372Z,101569.28
2022-08-30T00:10:51.277Z,101563.81
2022-08-30T00:13:19.531Z,101559.16
2022-08-30T00:15:47.337Z,101558.13
2022-08-30T00:18:15.723Z,101557.53
2022-08-30T00:20:42.798Z,101561.88
2022-08-30T00:23:09.462Z,101558.16
2022-08-30T00:25:36.116Z,101554.41
2022-08-30T00:28:03.155Z,101552.56
2022-08-30T00:30:29.862Z,101553.69
2022-08-30T00:32:56.399Z,101553.22
2022-08-30T00:35:23.374Z,101549.00
2022-08-30T00:37:50.893Z,101550.94
2022-08-30T00:40:20.382Z,101547.75
2022-08-30T00:42:59.854Z,101540.13
2022-08-30T00:45:31.749Z,101538.59
2022-08-30T00:47:59.085Z,101538.44
2022-08-30T00:50:28.967Z,101535.97
2022-08-30T00:52:59.324Z,101529.19
2022-08-30T00:55:26.314Z,101531.25
2022-08-30T00:57:57.049Z,101531.47
2022-08-30T01:00:23.664Z,101536.50
2022-08-30T01:02:50.670Z,101523.91
2022-08-30T01:05:20.675Z,101521.66
2022-08-30T01:07:47.280Z,101529.66
2022-08-30T01:10:14.894Z,101533.66
2022-08-30T01:12:42.950Z,101536.63
2022-08-30T01:15:11.047Z,101532.13
2022-08-30T01:17:38.243Z,101524.91
2022-08-30T01:20:10.516Z,101526.34
2022-08-30T01:22:49.295Z,101521.47
2022-08-30T01:25:18.755Z,101514.28
2022-08-30T01:27:49.327Z,101511.28
2022-08-30T01:30:16.014Z,101511.94
2022-08-30T01:32:45.896Z,101511.19
2022-08-30T01:35:15.613Z,101514.72
2022-08-30T01:37:43.567Z,101519.38
2022-08-30T01:40:11.906Z,101523.59
2022-08-30T01:42:38.547Z,101515.97
2022-08-30T01:45:06.716Z,101523.31
2022-08-30T01:47:33.487Z,101527.19
2022-08-30T01:50:00.476Z,101522.56
2022-08-30T01:52:27.943Z,101522.66
2022-08-30T01:54:54.548Z,101525.84
2022-08-30T01:57:23.387Z,101529.25
2022-08-30T01:59:50.402Z,101538.69
2022-08-30T02:02:19.854Z,101532.56
2022-08-30T02:04:46.754Z,101532.31
2022-08-30T02:07:13.280Z,101525.50
2022-08-30T02:09:44.210Z,101519.78
2022-08-30T02:12:12.834Z,101516.19
2022-08-30T02:14:39.589Z,101519.13
2022-08-30T02:17:08.228Z,101510.63
2022-08-30T02:19:34.793Z,101516.53
2022-08-30T02:22:01.408Z,101522.84
2022-08-30T02:24:28.158Z,101520.69
2022-08-30T02:26:54.781Z,101520.84
2022-08-30T02:29:22.558Z,101518.88
2022-08-30T02:31:49.542Z,101516.50
2022-08-30T02:34:16.897Z,101514.53
2022-08-30T02:36:43.958Z,101517.69
2022-08-30T02:39:11.920Z,101515.97
2022-08-30T02:41:39.066Z,101522.31
2022-08-30T02:44:06.572Z,101523.34
2022-08-30T02:46:34.741Z,101516.78
2022-08-30T02:49:13.043Z,101517.34
2022-08-30T02:51:49.495Z,101512.91
2022-08-30T02:54:19.958Z,101503.28
2022-08-30T02:56:47.935Z,101508.75
2022-08-30T02:59:15.886Z,101505.38
2022-08-30T03:01:42.930Z,101503.88
2022-08-30T03:04:09.966Z,101502.63
2022-08-30T03:06:36.581Z,101506.59
2022-08-30T03:09:03.678Z,101504.72
2022-08-30T03:11:31.553Z,101503.00
2022-08-30T03:13:58.302Z,101495.38
2022-08-30T03:16:25.083Z,101502.25
2022-08-30T03:18:51.674Z,101508.38
2022-08-30T03:21:18.323Z,101514.25
2022-08-30T03:23:44.951Z,101511.69
2022-08-30T03:26:14.735Z,101503.00
2022-08-30T03:28:42.620Z,101498.13
2022-08-30T03:31:09.462Z,101505.22
2022-08-30T03:33:36.829Z,101506.38
2022-08-30T03:36:03.874Z,101505.44
2022-08-30T03:38:31.073Z,101508.94
2022-08-30T03:40:57.686Z,101505.06
2022-08-30T03:43:25.365Z,101500.25
2022-08-30T03:45:52.459Z,101506.31
2022-08-30T03:48:19.126Z,101507.34
2022-08-30T03:50:45.703Z,101503.41
2022-08-30T03:53:12.329Z,101503.00
2022-08-30T03:55:38.891Z,101508.72
2022-08-30T03:58:05.489Z,101510.44
2022-08-30T04:00:32.182Z,101519.50
2022-08-30T04:02:58.847Z,101509.59
2022-08-30T04:05:25.525Z,101510.63
2022-08-30T04:07:52.375Z,101515.75
2022-08-30T04:10:21.337Z,101513.91
2022-08-30T04:12:49.803Z,101512.91
2022-08-30T04:15:18.018Z,101512.03
2022-08-30T04:17:44.736Z,101522.13
2022-08-30T04:20:11.376Z,101534.00
2022-08-30T04:22:38.209Z,101537.03
2022-08-30T04:25:06.068Z,101541.44
2022-08-30T04:27:32.711Z,101538.81
2022-08-30T04:30:00.277Z,101535.03
2022-08-30T04:32:27.122Z,101538.06
2022-08-30T04:34:58.632Z,101543.09
2022-08-30T04:37:25.414Z,101545.44
2022-08-30T04:39:56.470Z,101547.41
2022-08-30T04:42:23.676Z,101548.25
2022-08-30T04:44:50.930Z,101542.59
2022-08-30T04:47:18.574Z,101553.81
2022-08-30T04:49:45.191Z,101558.25
2022-08-30T04:52:11.790Z,101558.63
2022-08-30T04:54:38.567Z,101562.59
2022-08-30T04:57:06.559Z,101554.19
2022-08-30T04:59:33.409Z,101549.75
2022-08-30T05:02:00.325Z,101553.13
2022-08-30T05:04:26.972Z,101562.88
2022-08-30T05:06:53.959Z,101566.06
2022-08-30T05:09:21.639Z,101568.44
2022-08-30T05:11:48.570Z,101574.09
2022-08-30T05:14:15.179Z,101578.31
2022-08-30T05:16:42.005Z,101579.28
2022-08-30T05:19:08.628Z,101575.81
2022-08-30T05:21:35.460Z,101568.59
2022-08-30T05:24:02.253Z,101575.81
2022-08-30T05:26:33.799Z,101580.03
2022-08-30T05:29:01.012Z,101581.34
2022-08-30T05:31:30.577Z,101601.53
2022-08-30T05:33:57.760Z,101598.69
2022-08-30T05:36:26.455Z,101607.31
2022-08-30T05:38:53.727Z,101608.72
2022-08-30T05:41:21.634Z,101616.09
2022-08-30T05:43:48.882Z,101608.06
2022-08-30T05:46:19.958Z,101603.06
2022-08-30T05:48:47.032Z,101619.94
2022-08-30T05:51:19.265Z,101613.72
2022-08-30T05:53:47.042Z,101621.84
2022-08-30T05:56:15.956Z,101618.34
2022-08-30T05:58:43.527Z,101616.34
2022-08-30T06:01:31.812Z,101620.38
2022-08-30T06:04:03.835Z,101620.66
2022-08-30T06:06:33.302Z,101612.91
2022-08-30T06:08:59.851Z,101621.75
2022-08-30T06:11:26.800Z,101619.69
2022-08-30T06:13:54.612Z,101624.13
2022-08-30T06:16:23.861Z,101627.78
2022-08-30T06:18:50.865Z,101627.47
2022-08-30T06:21:25.116Z,101637.59
2022-08-30T06:23:52.340Z,101634.75
2022-08-30T06:26:19.225Z,101633.44
2022-08-30T06:28:45.831Z,101631.28
2022-08-30T06:31:14.340Z,101636.97
2022-08-30T06:33:41.053Z,101622.41
2022-08-30T06:36:10.491Z,101618.91
2022-08-30T06:38:37.830Z,101606.41
2022-08-30T06:41:08.944Z,101595.88
2022-08-30T06:43:35.605Z,101600.28
2022-08-30T06:46:05.288Z,101593.03
2022-08-30T06:48:31.916Z,101586.44
2022-08-30T06:50:59.207Z,101586.47
2022-08-30T06:53:26.960Z,101585.00
2022-08-30T06:56:04.439Z,101594.47
2022-08-30T06:58:31.761Z,101591.75
2022-08-30T07:00:58.411Z,101607.78
2022-08-30T07:03:27.330Z,101605.91
2022-08-30T07:05:56.976Z,101605.13
2022-08-30T07:08:25.444Z,101596.06
2022-08-30T07:10:54.545Z,101590.41
2022-08-30T07:13:23.876Z,101603.97
2022-08-30T07:15:51.406Z,101605.72
2022-08-30T07:18:36.888Z,101598.59
2022-08-30T07:21:15.202Z,101593.19
2022-08-30T07:23:43.404Z,101591.09
2022-08-30T07:26:12.637Z,101599.16
2022-08-30T07:28:41.169Z,101597.31
2022-08-30T07:33:40.569Z,101605.81
2022-08-30T07:36:07.596Z,101608.56
2022-08-30T07:38:34.628Z,101605.41
2022-08-30T07:41:01.351Z,101606.69
2022-08-30T07:43:29.116Z,101611.13
2022-08-30T07:45:58.014Z,101617.47
2022-08-30T07:48:24.649Z,101619.16
2022-08-30T07:50:54.908Z,101615.78
2022-08-30T07:53:24.331Z,101615.78
2022-08-30T07:55:51.992Z,101611.75
2022-08-30T07:58:18.648Z,101617.47
2022-08-30T08:00:45.549Z,101612.63
2022-08-30T08:03:12.564Z,101604.34
2022-08-30T08:05:43.984Z,101606.03
2022-08-30T08:08:11.231Z,101606.81
2022-08-30T08:10:39.197Z,101614.38
2022-08-30T08:13:05.930Z,101611.00
2022-08-30T08:15:33.027Z,101617.81
2022-08-30T08:18:00.363Z,101616.97
2022-08-30T08:20:27.217Z,101611.47
2022-08-30T08:22:54.018Z,101608.53
2022-08-30T08:25:20.707Z,101615.34
2022-08-30T08:27:49.122Z,101615.78
2022-08-30T08:30:15.872Z,101612.41
2022-08-30T08:32:42.987Z,101613.69
2022-08-30T08:35:11.247Z,101611.13
2022-08-30T08:37:38.621Z,101612.81
2022-08-30T08:40:07.050Z,101604.75
2022-08-30T08:42:48.899Z,101605.19
2022-08-30T08:45:19.952Z,101612.13
2022-08-30T08:48:05.369Z,101605.75
2022-08-30T08:50:32.191Z,101613.34
2022-08-30T08:53:44.721Z,101611.03
2022-08-30T08:56:12.630Z,101625.28
2022-08-30T08:58:49.587Z,101624.25
2022-08-30T09:01:18.306Z,101621.69
2022-08-30T09:03:46.415Z,101629.97
2022-08-30T09:06:16.032Z,101625.47
2022-08-30T09:08:42.606Z,101626.28
2022-08-30T09:11:16.678Z,101628.84
2022-08-30T09:13:43.350Z,101629.28
2022-08-30T09:16:14.939Z,101628.91
2022-08-30T09:18:54.631Z,101629.56
2022-08-30T09:21:25.202Z,101625.94
2022-08-30T09:24:00.329Z,101615.50
2022-08-30T09:26:36.566Z,101625.00
2022-08-30T09:29:05.202Z,101624.53
2022-08-30T09:31:47.577Z,101624.47
2022-08-30T09:34:20.283Z,101622.50
2022-08-30T09:36:49.840Z,101619.44
2022-08-30T09:39:30.518Z,101617.41
2022-08-30T09:42:22.659Z,101610.31
2022-08-30T09:44:49.831Z,101610.03
2022-08-30T09:47:28.523Z,101608.69
2022-08-30T09:50:21.146Z,101614.03
2022-08-30T09:52:58.086Z,101609.56
2022-08-30T09:55:43.473Z,101604.28
2022-08-30T09:58:16.184Z,101607.47
2022-08-30T10:00:49.605Z,101604.81
2022-08-30T10:03:36.450Z,101606.88
2022-08-30T10:06:46.578Z,101604.00
2022-08-30T10:09:21.245Z,101598.34
2022-08-30T10:11:59.074Z,101591.91
2022-08-30T10:15:02.612Z,101606.34
2022-08-30T10:18:17.225Z,101610.78
2022-08-30T10:20:56.752Z,101608.81
2022-08-30T10:23:29.866Z,101604.19
2022-08-30T10:26:06.011Z,101600.91
2022-08-30T10:28:55.871Z,101592.56
2022-08-30T10:31:44.525Z,101586.88
2022-08-30T10:34:26.065Z,101589.81
2022-08-30T10:37:04.500Z,101591.19
2022-08-30T10:39:39.537Z,101584.59
2022-08-30T10:42:10.734Z,101585.63
2022-08-30T10:44:44.590Z,101587.94
2022-08-30T10:47:18.595Z,101591.31
2022-08-30T10:49:55.794Z,101592.09
2022-08-30T10:52:48.091Z,101589.94
2022-08-30T10:55:22.217Z,101587.31
2022-08-30T10:57:49.775Z,101578.00
2022-08-30T11:00:25.271Z,101569.84
2022-08-30T11:03:20.630Z,101572.25
2022-08-30T11:06:03.315Z,101570.88
2022-08-30T11:08:47.876Z,101565.78
2022-08-30T11:11:51.960Z,101545.75
2022-08-30T11:14:19.934Z,101546.13
2022-08-30T11:16:54.224Z,101547.47
2022-08-30T11:19:32.375Z,101555.66
2022-08-30T11:22:35.538Z,101553.78
2022-08-30T11:25:15.668Z,101537.81
2022-08-30T11:27:45.228Z,101547.16
2022-08-30T11:30:27.367Z,101541.50
2022-08-30T11:33:03.240Z,101535.41
2022-08-30T11:35:48.767Z,101536.22
2022-08-30T11:38:26.439Z,101525.59
2022-08-30T11:40:56.325Z,101530.09
2022-08-30T11:43:36.566Z,101533.59
2022-08-30T11:46:28.117Z,101527.69
2022-08-30T11:49:15.854Z,101530.44
2022-08-30T11:52:26.560Z,101521.75
2022-08-30T11:54:52.881Z,101516.22
2022-08-30T11:57:42.847Z,101521.13
2022-08-30T12:00:31.333Z,101508.59
2022-08-30T12:03:03.990Z,101491.94
2022-08-30T12:05:41.172Z,101489.47
2022-08-30T12:08:20.630Z,101489.47
2022-08-30T12:10:57.343Z,101483.13
2022-08-30T12:13:39.129Z,101485.97
2022-08-30T12:16:13.137Z,101493.41
2022-08-30T12:35:26.322Z,101495.81
2022-08-30T12:38:05.869Z,101502.22
2022-08-30T12:40:35.380Z,101500.50
2022-08-30T13:07:34.264Z,101449.81
2022-08-30T13:10:07.101Z,101443.81
2022-08-30T13:12:36.012Z,101463.84
2022-08-30T13:15:16.691Z,101477.84
2022-08-30T13:17:45.152Z,101473.31
2022-08-30T13:20:11.645Z,101456.34
2022-08-30T13:22:40.713Z,101449.09
2022-08-30T13:25:09.335Z,101439.63
2022-08-30T13:27:37.358Z,101430.00
2022-08-30T13:30:22.605Z,101426.91
2022-08-30T13:32:50.259Z,101430.38
2022-08-30T13:35:17.126Z,101454.78
2022-08-30T13:37:49.895Z,101450.34
2022-08-30T13:40:24.288Z,101540.75
2022-08-30T14:15:33.446Z,101679.38
2022-08-30T14:17:59.976Z,101641.38
2022-08-30T14:20:26.563Z,101615.00
2022-08-30T14:22:53.539Z,101618.25
2022-08-30T14:25:20.133Z,101609.91
2022-08-30T14:27:47.282Z,101605.84
2022-08-30T14:30:16.725Z,101618.59
2022-08-30T14:32:47.200Z,101634.59
2022-08-30T14:35:16.535Z,101619.88
2022-08-30T14:37:43.045Z,101614.22
2022-08-30T14:40:10.202Z,101589.94
2022-08-30T14:42:37.304Z,101582.69
2022-08-30T14:45:04.503Z,101574.97
2022-08-30T14:47:31.118Z,101581.81
2022-08-30T14:50:00.881Z,101600.38
2022-08-30T14:52:31.041Z,101619.66
2022-08-30T14:55:08.782Z,101612.03
2022-08-30T14:57:35.936Z,101596.28
2022-08-30T15:00:07.079Z,101607.19
2022-08-30T15:18:06.464Z,101521.25
2022-08-30T15:20:33.097Z,101507.28
2022-08-30T15:23:00.569Z,101498.75
2022-08-30T15:25:27.610Z,101499.28
2022-08-30T15:27:54.173Z,101490.09
2022-08-30T15:30:21.285Z,101504.56
2022-08-30T15:32:47.897Z,101511.38
2022-08-30T15:35:15.169Z,101509.81
2022-08-30T15:37:43.054Z,101508.66
2022-08-30T15:40:10.462Z,101513.09
2022-08-30T15:42:37.066Z,101532.81
2022-08-30T15:45:04.058Z,101551.03
2022-08-30T15:47:30.682Z,101551.88
2022-08-30T15:50:03.046Z,101545.75
2022-08-30T15:52:30.726Z,101526.34
2022-08-30T15:54:57.660Z,101515.13
2022-08-30T15:57:24.453Z,101517.50
2022-08-30T15:59:51.189Z,101509.19
2022-08-30T16:02:17.764Z,101525.69
2022-08-30T16:04:44.869Z,101533.88
2022-08-30T16:07:13.711Z,101535.22
2022-08-30T16:09:40.804Z,101522.97
2022-08-30T16:12:09.860Z,101504.56
2022-08-30T16:14:36.784Z,101499.94
2022-08-30T16:17:04.856Z,101501.47
2022-08-30T16:19:32.941Z,101507.44
2022-08-30T16:21:59.944Z,101509.78
2022-08-30T16:24:27.118Z,101467.97
2022-08-30T16:26:53.744Z,101452.66
2022-08-30T16:29:20.683Z,101439.94
2022-08-30T16:31:47.607Z,101438.56
2022-08-30T16:34:16.784Z,101431.41
2022-08-30T16:36:43.522Z,101451.13
2022-08-30T16:39:12.830Z,101456.94
2022-08-30T16:41:40.587Z,101453.53
2022-08-30T16:44:07.323Z,101455.56
2022-08-30T16:46:35.830Z,101462.03
2022-08-30T16:49:02.770Z,101452.88
2022-08-30T16:51:31.541Z,101437.91
2022-08-30T16:54:01.684Z,101426.69
2022-08-30T16:56:30.096Z,101430.41
2022-08-30T16:59:01.795Z,101407.66
2022-08-30T17:01:35.378Z,101378.22
2022-08-30T17:04:03.189Z,101342.66
2022-08-30T17:06:30.195Z,101295.53
2022-08-30T17:08:56.765Z,101256.56
2022-08-30T17:11:24.182Z,101240.19
2022-08-30T17:13:51.190Z,101279.28
2022-08-30T17:16:22.805Z,101307.03
2022-08-30T17:18:55.072Z,101327.47
2022-08-30T17:21:21.876Z,101317.25
2022-08-30T17:23:50.294Z,101318.94
2022-08-30T17:26:18.531Z,101324.94
2022-08-30T17:28:45.769Z,101338.94
2022-08-30T17:31:12.523Z,101336.88
2022-08-30T17:33:43.091Z,101331.97
2022-08-30T17:36:12.413Z,101329.53
2022-08-30T17:38:44.717Z,101306.09
2022-08-30T17:41:12.025Z,101307.47
2022-08-30T17:43:39.334Z,101291.84
2022-08-30T17:46:09.032Z,101298.78
2022-08-30T17:48:37.279Z,101286.69
2022-08-30T17:51:04.287Z,101278.97
2022-08-30T17:53:30.896Z,101264.38
2022-08-30T17:55:58.743Z,101262.94
2022-08-30T17:58:25.455Z,101264.94
2022-08-30T18:00:54.177Z,101253.06
2022-08-30T18:03:20.880Z,101246.47
2022-08-30T18:05:47.490Z,101238.28
2022-08-30T18:08:14.151Z,101232.47
2022-08-30T18:10:40.885Z,101239.44
2022-08-30T18:13:07.728Z,101258.19
2022-08-30T18:15:35.345Z,101263.47
2022-08-30T18:18:01.914Z,101266.19
2022-08-30T18:20:31.866Z,101283.56
2022-08-30T18:22:58.475Z,101306.69
2022-08-30T18:25:25.019Z,101318.97
2022-08-30T18:27:57.255Z,101322.78
2022-08-30T18:30:33.162Z,101341.34
2022-08-30T18:33:01.478Z,101360.28
2022-08-30T18:35:38.743Z,101373.75
2022-08-30T18:38:09.873Z,101379.56
2022-08-30T18:40:37.982Z,101383.13
2022-08-30T18:43:08.022Z,101380.72
2022-08-30T18:45:35.253Z,101383.06
2022-08-30T18:48:03.794Z,101403.16
2022-08-30T18:50:31.947Z,101409.44
2022-08-30T18:52:58.690Z,101409.44
2022-08-30T18:55:26.496Z,101413.38
2022-08-30T18:57:53.117Z,101427.50
2022-08-30T19:00:21.212Z,101416.91
2022-08-30T19:02:47.945Z,101417.72
2022-08-30T19:05:16.325Z,101416.13
2022-08-30T19:07:44.545Z,101421.13
2022-08-30T19:10:12.725Z,101418.81
2022-08-30T19:12:40.273Z,101428.84
2022-08-30T19:17:57.678Z,101425.41
2022-08-30T19:20:25.113Z,101427.97
2022-08-30T19:23:08.825Z,101426.06
2022-08-30T19:25:40.140Z,101440.38
2022-08-30T19:28:07.186Z,101443.72
2022-08-30T19:30:34.533Z,101432.41
2022-08-30T19:33:01.246Z,101432.13
2022-08-30T19:35:29.928Z,101436.78
2022-08-30T19:37:57.142Z,101433.41
2022-08-30T19:40:23.860Z,101426.28
2022-08-30T19:42:52.299Z,101434.72
2022-08-30T19:45:21.672Z,101440.22
2022-08-30T19:47:49.341Z,101430.84
2022-08-30T19:50:17.158Z,101442.13
2022-08-30T19:52:47.297Z,101445.88
2022-08-30T19:55:17.778Z,101435.50
2022-08-30T19:57:50.311Z,101445.44
2022-08-30T20:00:17.709Z,101451.38
2022-08-30T20:02:44.806Z,101450.03
2022-08-30T20:05:17.402Z,101435.25
2022-08-30T20:07:44.036Z,101445.66
2022-08-30T20:10:12.919Z,101437.28
2022-08-30T20:12:39.959Z,101438.84
2022-08-30T20:15:14.648Z,101439.00
2022-08-30T20:18:03.102Z,101445.66
2022-08-30T20:20:33.567Z,101442.63
2022-08-30T20:23:02.951Z,101439.50
2022-08-30T20:24:32.208Z,101429.19
2022-08-30T20:25:30.620Z,101437.47
2022-08-30T20:27:57.153Z,101445.47
2022-08-30T20:30:23.785Z,101436.47
2022-08-30T20:32:52.557Z,101437.09
2022-08-30T20:35:19.145Z,101433.56
2022-08-30T20:37:45.922Z,101429.31
2022-08-30T20:40:16.072Z,101433.94
2022-08-30T20:42:45.711Z,101417.28
2022-08-30T20:45:14.520Z,101416.94
2022-08-30T20:47:41.778Z,101408.25
2022-08-30T20:50:13.879Z,101406.72
2022-08-30T20:52:40.813Z,101395.00
2022-08-30T20:55:08.253Z,101395.69
2022-08-30T20:57:34.858Z,101397.56
2022-08-30T21:00:01.714Z,101399.25
2022-08-30T21:02:28.400Z,101400.44
2022-08-30T21:04:55.123Z,101407.41
2022-08-30T21:07:21.768Z,101401.81
2022-08-30T21:09:48.357Z,101399.13
2022-08-30T21:12:14.973Z,101386.03
2022-08-30T21:14:41.552Z,101384.50
2022-08-30T21:17:08.195Z,101389.78
2022-08-30T21:19:34.904Z,101387.22
2022-08-30T21:22:01.913Z,101382.97
2022-08-30T21:24:31.320Z,101382.13
2022-08-30T21:26:58.821Z,101381.94
2022-08-30T21:29:28.084Z,101388.22
2022-08-30T21:31:55.551Z,101397.28
2022-08-30T21:34:22.689Z,101399.81
2022-08-30T21:36:49.858Z,101407.13
2022-08-30T21:39:18.154Z,101407.28
2022-08-30T21:41:45.286Z,101416.47
2022-08-30T21:44:15.674Z,101427.38
2022-08-30T21:46:42.767Z,101426.00
2022-08-30T21:49:11.317Z,101424.28
2022-08-30T21:51:41.212Z,101429.75
2022-08-30T21:54:09.783Z,101432.63
2022-08-30T21:56:37.853Z,101431.78
2022-08-30T21:59:05.933Z,101425.84
2022-08-30T22:01:33.000Z,101419.72
2022-08-30T22:04:01.739Z,101418.38
2022-08-30T22:06:30.865Z,101420.56
2022-08-30T22:08:59.450Z,101426.16
2022-08-30T22:11:26.989Z,101432.28
2022-08-30T22:13:54.403Z,101431.81
2022-08-30T22:16:22.303Z,101433.28
2022-08-30T22:18:50.503Z,101425.66
2022-08-30T22:21:20.817Z,101418.50
2022-08-30T22:23:47.528Z,101419.53
2022-08-30T22:26:16.700Z,101418.00
2022-08-30T22:28:43.648Z,101426.69
2022-08-30T22:31:12.675Z,101437.91
2022-08-30T22:33:39.554Z,101428.72
2022-08-30T22:36:14.593Z,101426.84
2022-08-30T22:38:41.391Z,101417.97
2022-08-30T22:41:10.340Z,101416.13
2022-08-30T22:43:36.851Z,101418.69
2022-08-30T22:46:03.661Z,101408.63
2022-08-30T22:48:30.325Z,101401.50
2022-08-30T22:50:56.917Z,101404.53
2022-08-30T22:53:23.476Z,101383.81
2022-08-30T22:55:50.060Z,101349.78
2022-08-30T22:58:19.006Z,101336.50
2022-08-30T23:00:49.729Z,101343.81
2022-08-30T23:03:22.090Z,101376.47
2022-08-30T23:05:48.657Z,101396.69
2022-08-30T23:08:15.212Z,101395.31
2022-08-30T23:10:41.886Z,101393.28
2022-08-30T23:13:08.429Z,101382.22
2022-08-30T23:15:35.027Z,101379.16
2022-08-30T23:18:01.608Z,101391.19
2022-08-30T23:20:28.304Z,101405.63
2022-08-30T23:23:00.725Z,101403.13
2022-08-30T23:25:51.738Z,101396.31
2022-08-30T23:28:38.962Z,101382.03
2022-08-30T23:31:32.590Z,101390.53
2022-08-30T23:34:18.261Z,101399.75
2022-08-30T23:37:03.555Z,101387.31
2022-08-30T23:39:48.298Z,101386.81
2022-08-30T23:42:33.290Z,101394.47
2022-08-30T23:45:18.130Z,101381.56
2022-08-30T23:48:03.374Z,101385.66
2022-08-30T23:50:48.791Z,101383.13
2022-08-30T23:53:33.598Z,101382.56
2022-08-30T23:56:19.065Z,101376.63
2022-08-30T23:59:04.174Z,101377.66
